Airfield :
LOGIN :

Register | Disclaimer

   EN    FR    IT 

 










Legend :    VFR   Marginal VFR   IFR   Intensive IFR   Very Intensive IFR
Visi :
Ceiling :
>= 8 km
>= 3000ft
5 to 8 km
1000 to 3000 ft
1500m to 5 km
500 to 1000 ft
800 to 1500m
200 to 500 ft
< 800m
< 200 ft
Symbols :   Thunderstorms  Fog  Heavy snow  Heavy precipitations  Wind > 20 kt
SIGMETs :     Misc.  Thunderstorms  Icing  Turbulence  Mountain Waves  Volcanic Ashes






- Airport Elevation : 24 ft
- IATA code : IBZ


LEIB - Ibiza

CURRENT METAR :
  • 011300Z 20004KT 170V240 CAVOK 14/06 Q1028 NOSIG

EXPIRED METARs :
  • 011230Z 23003KT 170V280 CAVOK 14/04 Q1028 NOSIG
  • 011200Z VRB02KT CAVOK 14/06 Q1029 NOSIG
  • 011130Z 09003KT 360V140 CAVOK 13/05 Q1029 NOSIG
  • 011100Z VRB02KT 9999 FEW003 13/05 Q1029 NOSIG
  • 011030Z 09003KT 060V140 CAVOK 12/05 Q1029 NOSIG

TAF TAF LEIB
Valid from the 01 at 09:00 until the 02 at 09:00 UTC


010800Z 0109/0209 VRB04KT 9999 FEW020 TX15/0112Z TN05/0206Z
BECMG 0109/0111 14008KT
BECMG 0116/0118 VRB04KT



MET'MAP, your aeronautical weather chart ! - Copyright ORBIFLY December 2007 - Disclaimer

ORBIFLY MET'MAP TEAM :

Programming & Development : Alexandra Zaïnal
Original concept : Baudouin d'Aumeries
Technical & hardware support : Manuel Goepfert
Assistance : Marc-Olivier Méhu




SOURCES & CREDITS :

   NOAA